createdAt,value
2019-04-05T00:01:47.184Z,77.09
2019-04-05T00:04:15.885Z,76.94
2019-04-05T00:06:44.334Z,77.01
2019-04-05T00:09:13.031Z,76.97
2019-04-05T00:11:41.512Z,77.08
2019-04-05T00:14:09.843Z,77.11
2019-04-05T00:16:38.274Z,77.18
2019-04-05T00:19:07.004Z,76.92
2019-04-05T00:21:35.711Z,77.10
2019-04-05T00:24:04.594Z,76.94
2019-04-05T00:26:33.413Z,76.85
2019-04-05T00:29:02.077Z,77.38
2019-04-05T00:31:30.471Z,77.71
2019-04-05T00:33:59.169Z,77.70
2019-04-05T00:36:27.827Z,77.57
2019-04-05T00:38:56.835Z,77.30
2019-04-05T00:41:25.524Z,76.71
2019-04-05T00:43:53.905Z,76.82
2019-04-05T00:46:22.526Z,77.10
2019-04-05T00:48:50.909Z,77.26
2019-04-05T00:51:19.295Z,76.94
2019-04-05T00:53:47.696Z,76.92
2019-04-05T00:56:16.099Z,77.18
2019-04-05T00:58:44.513Z,77.19
2019-04-05T01:01:13.160Z,76.94
2019-04-05T01:03:41.895Z,77.02
2019-04-05T01:06:10.454Z,76.92
2019-04-05T01:08:38.931Z,76.68
2019-04-05T01:11:07.314Z,76.58
2019-04-05T01:13:36.044Z,76.47
2019-04-05T01:16:04.835Z,76.37
2019-04-05T01:18:33.330Z,76.19
2019-04-05T01:21:04.317Z,76.19
2019-04-05T01:23:34.353Z,76.05
2019-04-05T01:26:03.893Z,76.16
2019-04-05T01:28:32.684Z,76.11
2019-04-05T01:31:01.096Z,76.18
2019-04-05T01:33:29.492Z,76.30
2019-04-05T01:35:57.881Z,76.18
2019-04-05T01:38:26.343Z,76.18
2019-04-05T01:40:57.495Z,76.14
2019-04-05T01:43:25.968Z,76.21
2019-04-05T01:45:54.625Z,76.31
2019-04-05T01:48:23.082Z,76.35
2019-04-05T01:50:52.008Z,76.56
2019-04-05T01:53:20.617Z,76.71
2019-04-05T01:55:49.492Z,76.80
2019-04-05T01:58:18.178Z,76.84
2019-04-05T02:00:46.975Z,77.28
2019-04-05T02:03:15.671Z,77.62
2019-04-05T02:05:44.626Z,77.40
2019-04-05T02:08:13.194Z,77.46
2019-04-05T02:10:41.715Z,77.42
2019-04-05T02:13:10.774Z,77.48
2019-04-05T02:15:39.322Z,77.57
2019-04-05T02:18:08.281Z,77.52
2019-04-05T02:20:37.006Z,77.63
2019-04-05T02:23:05.487Z,77.89
2019-04-05T02:25:33.945Z,77.86
2019-04-05T02:28:02.696Z,77.80
2019-04-05T02:30:31.173Z,77.46
2019-04-05T02:32:59.567Z,77.56
2019-04-05T02:35:28.707Z,77.14
2019-04-05T02:37:57.577Z,76.89
2019-04-05T02:40:27.869Z,76.82
2019-04-05T02:42:59.568Z,76.89
2019-04-05T02:45:31.003Z,76.74
2019-04-05T02:48:02.452Z,76.52
2019-04-05T02:50:33.918Z,76.44
2019-04-05T02:53:04.999Z,76.47
2019-04-05T02:55:35.480Z,76.50
2019-04-05T02:58:04.767Z,76.37
2019-04-05T03:00:33.800Z,76.37
2019-04-05T03:03:04.082Z,76.45
2019-04-05T03:05:32.529Z,76.41
2019-04-05T03:08:01.457Z,76.43
2019-04-05T03:10:57.191Z,76.51
2019-04-05T03:13:28.633Z,76.50
2019-04-05T03:16:00.003Z,76.35
2019-04-05T03:18:30.869Z,76.34
2019-04-05T03:21:02.607Z,76.40
2019-04-05T03:23:33.412Z,76.54
2019-04-05T03:26:05.174Z,76.61
2019-04-05T03:28:36.936Z,76.68
2019-04-05T03:31:05.551Z,76.78
2019-04-05T03:33:35.001Z,76.85
2019-04-05T03:36:03.731Z,76.82
2019-04-05T03:38:32.733Z,76.88
2019-04-05T03:41:01.881Z,77.06
2019-04-05T03:43:30.806Z,77.12
2019-04-05T03:45:59.474Z,77.14
2019-04-05T03:48:27.952Z,77.08
2019-04-05T03:50:56.505Z,77.14
2019-04-05T03:53:25.159Z,77.29
2019-04-05T03:55:54.054Z,77.44
2019-04-05T03:58:22.534Z,77.45
2019-04-05T04:00:51.227Z,77.34
2019-04-05T04:03:20.583Z,77.34
2019-04-05T04:05:49.324Z,77.43
2019-04-05T04:08:18.276Z,77.36
2019-04-05T04:10:48.624Z,77.41
2019-04-05T04:13:17.676Z,77.50
2019-04-05T04:15:46.474Z,77.51
2019-04-05T04:18:15.696Z,77.58
2019-04-05T04:20:50.132Z,77.57
2019-04-05T04:23:20.707Z,77.52
2019-04-05T04:25:51.636Z,77.49
2019-04-05T04:28:20.868Z,77.42
2019-04-05T04:30:49.532Z,77.45
2019-04-05T04:33:18.673Z,77.57
2019-04-05T04:35:47.198Z,77.61
2019-04-05T04:38:15.622Z,77.63
2019-04-05T04:40:44.504Z,77.54
2019-04-05T04:43:13.119Z,77.67
2019-04-05T04:45:42.795Z,77.68
2019-04-05T04:48:11.521Z,77.79
2019-04-05T04:50:41.349Z,77.86
2019-04-05T04:53:10.289Z,77.92
2019-04-05T04:55:38.980Z,77.99
2019-04-05T04:58:07.641Z,78.20
2019-04-05T05:00:36.800Z,78.12
2019-04-05T05:03:05.793Z,78.10
2019-04-05T05:05:34.562Z,77.97
2019-04-05T05:08:03.516Z,78.05
2019-04-05T05:10:32.143Z,78.12
2019-04-05T05:13:00.550Z,78.14
2019-04-05T05:15:29.529Z,78.12
2019-04-05T05:17:59.122Z,78.14
2019-04-05T05:20:28.381Z,78.11
2019-04-05T05:22:56.841Z,78.18
2019-04-05T05:25:25.608Z,78.19
2019-04-05T05:27:54.245Z,78.11
2019-04-05T05:30:22.926Z,78.10
2019-04-05T05:32:51.393Z,78.04
2019-04-05T05:35:20.152Z,78.19
2019-04-05T05:37:48.788Z,78.07
2019-04-05T05:40:17.917Z,78.09
2019-04-05T05:42:46.308Z,77.91
2019-04-05T05:45:14.855Z,78.04
2019-04-05T05:47:51.633Z,77.95
2019-04-05T05:50:13.902Z,77.85
2019-04-05T05:52:46.010Z,77.89
2019-04-05T05:55:14.748Z,77.70
2019-04-05T05:57:43.396Z,77.49
2019-04-05T06:00:13.106Z,77.19
2019-04-05T06:02:41.495Z,77.13
2019-04-05T06:05:10.236Z,76.88
2019-04-05T06:07:38.650Z,76.96
2019-04-05T06:10:08.197Z,77.11
2019-04-05T06:12:36.594Z,77.08
2019-04-05T06:15:06.716Z,77.13
2019-04-05T06:17:35.384Z,76.92
2019-04-05T06:20:04.880Z,76.84
2019-04-05T06:22:33.284Z,76.60
2019-04-05T06:25:01.670Z,76.52
2019-04-05T06:27:30.068Z,76.37
2019-04-05T06:29:58.451Z,75.90
2019-04-05T06:32:27.105Z,75.78
2019-04-05T06:34:55.516Z,75.56
2019-04-05T06:37:24.189Z,75.39
2019-04-05T06:39:52.561Z,75.56
2019-04-05T06:42:20.961Z,75.69
2019-04-05T06:44:49.361Z,75.83
2019-04-05T06:47:17.775Z,75.67
2019-04-05T06:49:46.164Z,75.53
2019-04-05T06:52:14.599Z,75.12
2019-04-05T06:54:43.003Z,75.09
2019-04-05T06:57:11.397Z,75.03
2019-04-05T06:59:40.141Z,75.13
2019-04-05T07:02:08.824Z,75.15
2019-04-05T07:04:37.215Z,74.62
2019-04-05T07:07:05.902Z,74.27
2019-04-05T07:09:34.600Z,74.22
2019-04-05T07:12:02.993Z,73.76
2019-04-05T07:14:31.666Z,73.37
2019-04-05T07:17:00.075Z,72.82
2019-04-05T07:19:28.480Z,72.67
2019-04-05T07:21:56.870Z,71.87
2019-04-05T07:24:25.602Z,71.93
2019-04-05T07:26:53.997Z,71.73
2019-04-05T07:29:22.388Z,71.43
2019-04-05T07:31:50.787Z,70.74
2019-04-05T07:34:19.457Z,70.74
2019-04-05T07:36:47.848Z,70.26
2019-04-05T07:39:16.513Z,69.21
2019-04-05T07:41:44.912Z,69.11
2019-04-05T07:44:13.412Z,68.90
2019-04-05T07:46:41.810Z,69.12
2019-04-05T07:49:10.210Z,69.53
2019-04-05T07:51:38.598Z,69.53
2019-04-05T07:54:06.998Z,68.95
2019-04-05T07:56:35.401Z,69.66
2019-04-05T07:59:04.196Z,69.66
2019-04-05T08:01:32.625Z,69.77
2019-04-05T08:04:01.369Z,68.04
2019-04-05T08:06:31.511Z,68.73
2019-04-05T08:09:08.572Z,68.73
2019-04-05T08:11:38.384Z,68.74
2019-04-05T08:14:07.718Z,69.04
2019-04-05T08:16:36.482Z,69.04
2019-04-05T08:19:05.186Z,68.66
2019-04-05T08:21:33.567Z,68.41
2019-04-05T08:24:01.968Z,68.94
2019-04-05T08:26:30.372Z,67.33
2019-04-05T08:28:58.784Z,67.51
2019-04-05T08:31:27.202Z,67.51
2019-04-05T08:33:55.884Z,67.59
2019-04-05T08:36:24.278Z,67.96
2019-04-05T08:38:52.681Z,67.96
2019-04-05T08:41:21.343Z,67.73
2019-04-05T08:43:50.029Z,67.73
2019-04-05T08:46:18.433Z,67.27
2019-04-05T08:48:46.829Z,67.75
2019-04-05T08:51:15.488Z,67.75
2019-04-05T08:53:43.870Z,67.31
2019-04-05T08:56:12.566Z,67.25
2019-04-05T08:58:40.960Z,67.25
2019-04-05T09:01:09.442Z,66.58
2019-04-05T09:03:37.880Z,65.51
2019-04-05T09:06:06.501Z,65.51
2019-04-05T09:08:34.908Z,65.26
2019-04-05T09:11:03.400Z,64.32
2019-04-05T09:13:32.056Z,65.36
2019-04-05T09:16:00.441Z,65.36
2019-04-05T09:18:28.840Z,66.37
2019-04-05T09:20:57.231Z,66.37
2019-04-05T09:23:25.636Z,65.99
2019-04-05T09:25:54.485Z,65.99
2019-04-05T09:28:23.191Z,66.00
2019-04-05T09:30:54.729Z,66.30
2019-04-05T09:33:23.132Z,66.30
2019-04-05T09:35:51.520Z,65.43
2019-04-05T09:38:20.219Z,65.43
2019-04-05T09:40:48.883Z,65.28
2019-04-05T09:43:17.293Z,64.17
2019-04-05T09:45:45.700Z,64.17
2019-04-05T09:48:14.101Z,64.21
2019-04-05T09:50:42.492Z,63.85
2019-04-05T09:53:10.893Z,64.00
2019-04-05T09:55:43.716Z,62.52
2019-04-05T09:58:12.122Z,62.52
2019-04-05T10:00:40.521Z,62.68
2019-04-05T10:03:09.450Z,62.68
2019-04-05T10:05:46.924Z,62.89
2019-04-05T10:08:15.340Z,62.89
2019-04-05T10:10:45.273Z,61.05
2019-04-05T10:13:13.743Z,62.03
2019-04-05T10:15:42.435Z,62.29
2019-04-05T10:18:11.113Z,60.31
2019-04-05T10:20:39.510Z,60.77
2019-04-05T10:23:07.899Z,60.16
2019-04-05T10:25:36.754Z,59.99
2019-04-05T10:28:05.385Z,59.76
2019-04-05T10:30:33.795Z,58.86
2019-04-05T10:33:02.526Z,58.73
2019-04-05T10:35:31.216Z,58.74
2019-04-05T10:37:59.628Z,59.10
2019-04-05T10:40:28.382Z,58.75
2019-04-05T10:42:57.069Z,58.71
2019-04-05T10:45:25.523Z,57.62
2019-04-05T10:47:53.915Z,58.80
2019-04-05T10:50:22.661Z,58.32
2019-04-05T10:52:51.051Z,58.44
2019-04-05T10:55:19.529Z,57.67
2019-04-05T10:57:48.192Z,57.82
2019-04-05T11:00:18.606Z,56.69
2019-04-05T11:02:47.035Z,57.89
2019-04-05T11:05:15.608Z,58.03
2019-04-05T11:07:44.281Z,58.71
2019-04-05T11:10:13.422Z,59.03
2019-04-05T11:12:42.073Z,58.57
2019-04-05T11:15:11.653Z,58.39
2019-04-05T11:17:42.366Z,57.89
2019-04-05T11:20:21.172Z,59.07
2019-04-05T11:22:42.423Z,59.19
2019-04-05T11:25:11.349Z,57.84
2019-04-05T11:27:39.737Z,58.16
2019-04-05T11:30:09.380Z,59.12
2019-04-05T11:32:38.399Z,57.51
2019-04-05T11:35:07.953Z,58.04
2019-04-05T11:37:39.494Z,58.25
2019-04-05T11:40:10.045Z,58.11
2019-04-05T11:42:38.699Z,59.51
2019-04-05T11:45:09.144Z,59.63
2019-04-05T11:47:38.767Z,59.58
2019-04-05T11:50:09.960Z,59.05
2019-04-05T11:52:38.364Z,59.65
2019-04-05T11:55:08.839Z,59.03
2019-04-05T11:57:37.247Z,58.48
2019-04-05T12:00:14.578Z,58.27
2019-04-05T12:02:52.170Z,57.65
2019-04-05T12:05:26.945Z,57.95
2019-04-05T12:08:00.925Z,57.71
2019-04-05T12:10:27.852Z,58.10
2019-04-05T12:12:56.582Z,58.11
2019-04-05T12:15:25.263Z,59.36
2019-04-05T12:17:53.673Z,60.68
2019-04-05T12:20:22.199Z,61.26
2019-04-05T12:22:52.441Z,61.58
2019-04-05T12:25:21.052Z,61.04
2019-04-05T12:27:49.741Z,60.61
2019-04-05T12:30:22.860Z,60.68
2019-04-05T12:32:51.099Z,59.83
2019-04-05T12:35:21.690Z,59.81
2019-04-05T12:37:50.995Z,61.53
2019-04-05T12:40:20.274Z,61.38
2019-04-05T12:42:49.180Z,62.37
2019-04-05T12:45:17.650Z,62.85
2019-04-05T12:47:46.238Z,63.45
2019-04-05T12:50:15.689Z,63.70
2019-04-05T12:52:44.096Z,63.70
2019-04-05T12:55:13.227Z,64.00
2019-04-05T12:57:41.640Z,63.53
2019-04-05T13:00:15.525Z,64.36
2019-04-05T13:02:44.080Z,64.91
2019-04-05T13:05:12.604Z,65.36
2019-04-05T13:07:41.084Z,65.36
2019-04-05T13:10:09.788Z,65.58
2019-04-05T13:12:38.200Z,65.03
2019-04-05T13:15:13.736Z,65.04
2019-04-05T13:17:38.123Z,64.97
2019-04-05T13:20:10.192Z,65.01
2019-04-05T13:22:38.745Z,64.64
2019-04-05T13:25:10.744Z,63.61
2019-04-05T13:27:41.262Z,62.82
2019-04-05T13:30:08.593Z,63.33
2019-04-05T13:32:37.087Z,63.30
2019-04-05T13:35:06.476Z,63.30
2019-04-05T13:37:35.214Z,63.64
2019-04-05T13:40:06.434Z,64.25
2019-04-05T13:42:35.504Z,64.52
2019-04-05T13:45:05.799Z,64.62
2019-04-05T13:47:37.864Z,64.62
2019-04-05T13:50:06.318Z,64.62
2019-04-05T13:52:35.088Z,65.22
2019-04-05T13:55:05.660Z,63.91
2019-04-05T13:57:34.120Z,64.07
2019-04-05T14:00:02.513Z,64.27
2019-04-05T14:02:31.204Z,64.62
2019-04-05T14:04:59.949Z,64.62
2019-04-05T14:07:28.359Z,64.11
2019-04-05T14:09:56.751Z,64.37
2019-04-05T14:12:25.481Z,65.35
2019-04-05T14:14:53.944Z,65.95
2019-04-05T14:17:24.299Z,65.31
2019-04-05T14:19:52.672Z,64.86
2019-04-05T14:22:22.549Z,65.67
2019-04-05T14:24:52.541Z,64.21
2019-04-05T14:27:34.921Z,63.57
2019-04-05T14:30:03.143Z,63.78
2019-04-05T14:32:31.538Z,63.78
2019-04-05T14:35:00.009Z,63.73
2019-04-05T14:37:28.412Z,64.48
2019-04-05T14:39:56.817Z,64.06
2019-04-05T14:42:25.229Z,64.64
2019-04-05T14:44:53.602Z,64.46
2019-04-05T14:47:22.060Z,64.85
2019-04-05T14:49:50.494Z,64.66
2019-04-05T14:52:19.482Z,65.05
2019-04-05T14:54:48.126Z,66.03
2019-04-05T14:57:16.537Z,65.76
2019-04-05T14:59:45.011Z,65.85
2019-04-05T15:02:13.502Z,65.73
2019-04-05T15:04:42.021Z,65.99
2019-04-05T15:07:10.784Z,66.58
2019-04-05T15:09:39.572Z,66.36
2019-04-05T15:12:08.120Z,66.31
2019-04-05T15:14:40.205Z,65.77
2019-04-05T15:17:08.716Z,66.33
2019-04-05T15:19:37.456Z,66.22
2019-04-05T15:22:06.486Z,66.58
2019-04-05T15:24:36.093Z,66.42
2019-04-05T15:27:04.570Z,66.42
2019-04-05T15:29:33.133Z,65.80
2019-04-05T15:32:02.373Z,66.29
2019-04-05T15:34:30.848Z,66.23
2019-04-05T15:37:01.515Z,66.29
2019-04-05T15:39:30.870Z,66.68
2019-04-05T15:41:59.571Z,66.48
2019-04-05T15:44:27.973Z,66.94
2019-04-05T15:46:56.371Z,66.74
2019-04-05T15:49:24.819Z,66.58
2019-04-05T15:51:55.166Z,67.08
2019-04-05T15:54:23.430Z,67.58
2019-04-05T15:56:51.819Z,67.06
2019-04-05T15:59:21.851Z,68.12
2019-04-05T16:01:50.432Z,68.85
2019-04-05T16:04:18.921Z,68.85
2019-04-05T16:06:47.416Z,69.73
2019-04-05T16:09:17.454Z,70.23
2019-04-05T16:11:45.999Z,69.90
2019-04-05T16:14:14.404Z,70.18
2019-04-05T16:16:43.023Z,70.18
2019-04-05T16:19:11.472Z,70.21
2019-04-05T16:21:39.870Z,70.21
2019-04-05T16:24:08.738Z,69.37
2019-04-05T16:26:37.357Z,69.20
2019-04-05T16:29:09.093Z,69.20
2019-04-05T16:31:37.898Z,69.34
2019-04-05T16:34:06.345Z,69.11
2019-04-05T16:36:34.750Z,69.18
2019-04-05T16:39:05.389Z,69.95
2019-04-05T16:41:33.746Z,69.47
2019-04-05T16:44:05.432Z,69.47
2019-04-05T16:46:40.970Z,70.00
2019-04-05T16:49:09.369Z,69.42
2019-04-05T16:51:39.547Z,70.61
2019-04-05T16:54:08.099Z,70.63
2019-04-05T16:56:36.481Z,71.31
2019-04-05T16:59:05.766Z,71.30
2019-04-05T17:01:34.515Z,71.09
2019-04-05T17:04:03.209Z,71.09
2019-04-05T17:06:31.896Z,71.63
2019-04-05T17:09:01.352Z,71.63
2019-04-05T17:11:29.997Z,71.77
2019-04-05T17:13:59.560Z,71.77
2019-04-05T17:16:28.739Z,71.88
2019-04-05T17:18:57.503Z,71.92
2019-04-05T17:21:26.010Z,72.06
2019-04-05T17:23:54.387Z,72.06
2019-04-05T17:26:22.780Z,71.70
2019-04-05T17:28:51.178Z,71.43
2019-04-05T17:31:19.569Z,71.31
2019-04-05T17:33:47.973Z,71.20
2019-04-05T17:36:16.389Z,70.71
2019-04-05T17:38:44.784Z,70.71
2019-04-05T17:41:13.171Z,71.17
2019-04-05T17:43:41.578Z,72.10
2019-04-05T17:46:09.972Z,71.66
2019-04-05T17:48:38.639Z,71.66
2019-04-05T17:51:07.025Z,71.67
2019-04-05T17:53:35.404Z,71.26
2019-04-05T17:56:03.996Z,71.26
2019-04-05T17:58:33.339Z,71.60
2019-04-05T18:01:01.765Z,71.30
2019-04-05T18:03:30.175Z,71.30
2019-04-05T18:05:58.551Z,71.47
2019-04-05T18:08:27.217Z,72.04
2019-04-05T18:10:56.593Z,72.04
2019-04-05T18:13:26.701Z,71.97
2019-04-05T18:15:55.055Z,71.95
2019-04-05T18:18:23.529Z,71.99
2019-04-05T18:20:51.932Z,72.50
2019-04-05T18:23:25.274Z,72.50
2019-04-05T18:25:50.513Z,73.06
2019-04-05T18:28:19.533Z,73.03
2019-04-05T18:30:48.404Z,73.12
2019-04-05T18:33:16.798Z,73.35
2019-04-05T18:35:45.208Z,73.35
2019-04-05T18:38:13.626Z,73.46
2019-04-05T18:40:42.011Z,73.46
2019-04-05T18:43:10.471Z,73.57
2019-04-05T18:45:38.878Z,73.53
2019-04-05T18:48:07.287Z,73.55
2019-04-05T18:50:35.673Z,73.55
2019-04-05T18:53:04.368Z,72.73
2019-04-05T18:55:32.760Z,73.09
2019-04-05T18:58:01.148Z,73.09
2019-04-05T19:00:29.560Z,73.37
2019-04-05T19:02:57.994Z,73.53
2019-04-05T19:05:26.614Z,73.13
2019-04-05T19:07:55.015Z,73.13
2019-04-05T19:10:36.216Z,73.44
2019-04-05T19:12:53.635Z,73.53
2019-04-05T19:15:22.206Z,73.23
2019-04-05T19:17:50.606Z,73.23
2019-04-05T19:20:19.000Z,73.13
2019-04-05T19:22:47.800Z,73.68
2019-04-05T19:25:16.185Z,74.20
2019-04-05T19:27:44.573Z,74.20
2019-04-05T19:50:17.694Z,73.79
2019-04-05T19:52:46.080Z,73.96
2019-04-05T19:55:15.014Z,73.96
2019-04-05T19:57:43.523Z,73.74
2019-04-05T20:00:12.450Z,74.05
2019-04-05T20:02:40.833Z,73.85
2019-04-05T20:05:10.170Z,73.52
2019-04-05T20:07:40.186Z,73.24
2019-04-05T20:10:10.513Z,73.80
2019-04-05T20:12:39.201Z,73.80
2019-04-05T20:15:08.233Z,73.62
2019-04-05T20:17:36.911Z,73.93
2019-04-05T20:20:07.358Z,73.93
2019-04-05T20:22:35.742Z,73.60
2019-04-05T20:25:05.965Z,73.60
2019-04-05T20:27:34.376Z,72.98
2019-04-05T20:30:04.541Z,72.74
2019-04-05T20:32:32.937Z,72.74
2019-04-05T20:35:01.339Z,72.82
2019-04-05T20:37:29.732Z,72.70
2019-04-05T20:39:58.478Z,72.70
2019-04-05T20:42:26.866Z,72.80
2019-04-05T20:44:55.262Z,72.62
2019-04-05T20:47:23.669Z,72.42
2019-04-05T20:49:52.347Z,72.42
2019-04-05T20:52:20.733Z,72.55
2019-04-05T20:54:49.393Z,72.54
2019-04-05T20:57:17.788Z,72.54
2019-04-05T20:59:46.167Z,72.76
2019-04-05T21:02:14.847Z,72.76
2019-04-05T21:04:43.245Z,72.82
2019-04-05T21:07:11.922Z,72.69
2019-04-05T21:09:40.660Z,72.69
2019-04-05T21:12:09.301Z,72.74
2019-04-05T21:14:37.690Z,72.67
2019-04-05T21:17:06.240Z,72.94
2019-04-05T21:19:40.665Z,73.09
2019-04-05T21:22:09.293Z,73.09
2019-04-05T21:24:37.834Z,72.99
2019-04-05T21:27:06.225Z,72.99
2019-04-05T21:29:34.938Z,72.64
2019-04-05T21:32:03.357Z,72.81
2019-04-05T21:34:32.021Z,73.04
2019-04-05T21:37:00.756Z,73.04
2019-04-05T21:39:29.390Z,73.10
2019-04-05T21:41:58.214Z,73.15
2019-04-05T21:44:27.198Z,73.17
2019-04-05T21:46:55.871Z,72.76
2019-04-05T21:49:24.282Z,72.79
2019-04-05T21:51:52.730Z,72.79
2019-04-05T21:54:21.148Z,72.79
2019-04-05T21:56:49.821Z,72.87
2019-04-05T21:59:18.232Z,73.09
2019-04-05T22:01:47.114Z,73.39
2019-04-05T22:04:15.523Z,73.39
2019-04-05T22:06:44.163Z,73.60
2019-04-05T22:09:12.728Z,73.58
2019-04-05T22:11:41.441Z,73.27
2019-04-05T22:14:09.843Z,73.11
2019-04-05T22:16:38.253Z,73.11
2019-04-05T22:19:06.646Z,73.11
2019-04-05T22:21:35.282Z,72.75
2019-04-05T22:24:03.706Z,72.75
2019-04-05T22:26:32.278Z,73.31
2019-04-05T22:29:00.753Z,73.31
2019-04-05T22:31:29.629Z,73.22
2019-04-05T22:33:58.045Z,73.57
2019-04-05T22:36:26.701Z,73.57
2019-04-05T22:38:55.088Z,73.23
2019-04-05T22:41:23.790Z,73.13
2019-04-05T22:43:52.200Z,72.79
2019-04-05T22:46:20.609Z,73.36
2019-04-05T22:48:49.343Z,73.36
2019-04-05T22:51:17.748Z,73.39
2019-04-05T22:53:46.144Z,73.37
2019-04-05T22:56:14.794Z,73.37
2019-04-05T22:58:43.195Z,74.06
2019-04-05T23:01:11.821Z,73.52
2019-04-05T23:03:40.557Z,73.59
2019-04-05T23:06:08.943Z,73.48
2019-04-05T23:08:37.330Z,73.48
2019-04-05T23:11:05.735Z,73.44
2019-04-05T23:13:34.122Z,73.58
2019-04-05T23:16:02.773Z,73.58
2019-04-05T23:18:31.475Z,73.98
2019-04-05T23:21:00.156Z,74.29
2019-04-05T23:23:28.562Z,74.29
2019-04-05T23:25:56.959Z,73.90
2019-04-05T23:28:25.612Z,73.39
2019-04-05T23:30:54.000Z,73.20
2019-04-05T23:33:22.628Z,73.08
2019-04-05T23:35:51.273Z,73.17
2019-04-05T23:38:19.666Z,72.99
2019-04-05T23:40:48.155Z,73.22
2019-04-05T23:43:16.580Z,73.29
2019-04-05T23:45:44.999Z,73.09
2019-04-05T23:48:13.436Z,73.09
2019-04-05T23:50:41.781Z,72.96
2019-04-05T23:53:10.202Z,72.92
2019-04-05T23:55:38.592Z,73.01
2019-04-05T23:58:06.989Z,73.13
